Time;durP1;ratioP1;P1;durP2;ratioP2;P2;SDS_P1;SDS_P2;PMS_P1;PMS_P2;Temp;Humidity;BMP_temperature;BMP_pressure;BME280_temperature;BME280_humidity;BME280_pressure;Samples;Min_cycle;Max_cycle;Signal;HPM_P1;HPM_P2
2021/11/24 00:03:56;;;;;;;30.50;15.18;;;;;;;4.68;100.00;100011.51;4550707;77;28452;-83
2021/11/24 00:09:58;;;;;;;29.92;15.28;;;;;;;4.77;100.00;100009.17;4544851;77;28440;-82
2021/11/24 00:16:02;;;;;;;27.80;15.03;;;;;;;4.81;100.00;100009.67;4562202;76;28485;-84
2021/11/24 00:22:04;;;;;;;36.65;17.57;;;;;;;4.83;100.00;100018.31;4550767;76;28464;-82
2021/11/24 00:28:08;;;;;;;28.30;13.80;;;;;;;4.81;100.00;100011.84;4561943;76;28501;-81
2021/11/24 00:34:09;;;;;;;27.45;13.45;;;;;;;4.70;100.00;100009.53;4540272;76;28536;-84
2021/11/24 00:40:11;;;;;;;27.25;14.00;;;;;;;4.74;100.00;100019.69;4550609;77;28459;-84
2021/11/24 00:46:12;;;;;;;27.48;14.05;;;;;;;4.66;100.00;100009.03;4526433;76;29144;-83
2021/11/24 00:52:16;;;;;;;26.33;13.53;;;;;;;4.68;100.00;100008.36;4555018;76;28516;-82
2021/11/24 00:58:18;;;;;;;23.32;12.00;;;;;;;4.52;100.00;100012.36;4530987;76;28454;-82
2021/11/24 01:04:19;;;;;;;20.80;11.18;;;;;;;4.63;100.00;100017.34;4556506;76;28473;-83
2021/11/24 01:10:21;;;;;;;20.68;11.55;;;;;;;4.67;100.00;100013.84;4561217;76;28478;-83
2021/11/24 01:16:23;;;;;;;22.05;11.25;;;;;;;4.67;100.00;100014.69;4561954;76;28482;-83
2021/11/24 01:22:26;;;;;;;20.60;10.60;;;;;;;4.64;100.00;100015.03;4539596;76;28501;-82
2021/11/24 01:28:27;;;;;;;18.60;10.13;;;;;;;4.54;100.00;100017.04;4574072;76;28523;-82
2021/11/24 01:34:29;;;;;;;17.57;9.40;;;;;;;4.65;100.00;100007.86;4533206;76;28506;-81
2021/11/24 01:40:31;;;;;;;20.37;10.45;;;;;;;4.63;100.00;100012.02;4572703;76;28473;-81
2021/11/24 01:46:32;;;;;;;18.90;9.70;;;;;;;4.62;100.00;100002.36;4559276;76;28542;-83
2021/11/24 01:52:34;;;;;;;16.97;9.45;;;;;;;4.58;100.00;100001.05;4538006;76;28478;-83
2021/11/24 01:58:37;;;;;;;18.67;9.25;;;;;;;4.55;100.00;100004.88;4533247;76;28483;-82
2021/11/24 02:04:39;;;;;;;18.80;9.95;;;;;;;4.55;100.00;99997.39;4546058;76;28446;-83
2021/11/24 02:10:40;;;;;;;19.82;11.10;;;;;;;4.59;100.00;99995.56;4571063;76;28594;-82
2021/11/24 02:16:49;;;;;;;17.73;9.25;;;;;;;4.53;100.00;99998.03;4541150;76;28585;-83
2021/11/24 02:22:51;;;;;;;16.55;8.55;;;;;;;4.46;100.00;99992.07;4566970;76;28510;-82
2021/11/24 02:28:52;;;;;;;17.10;9.33;;;;;;;4.46;100.00;99993.40;4527192;76;28481;-83
2021/11/24 02:34:53;;;;;;;14.75;8.70;;;;;;;4.49;100.00;99989.58;4568966;76;28459;-83
2021/11/24 02:40:55;;;;;;;15.90;9.08;;;;;;;4.43;100.00;99982.25;4552018;76;28512;-83
2021/11/24 02:47:11;;;;;;;13.98;7.45;;;;;;;4.44;100.00;99986.57;4582079;76;28505;-83
2021/11/24 02:53:12;;;;;;;15.95;8.33;;;;;;;4.45;100.00;99986.41;4556361;76;28455;-82
2021/11/24 02:59:14;;;;;;;14.38;8.43;;;;;;;4.45;100.00;99985.08;4538509;76;28425;-83
2021/11/24 03:05:19;;;;;;;12.28;7.80;;;;;;;4.43;100.00;99987.58;4461842;78;28451;-82
2021/11/24 03:11:22;;;;;;;15.87;8.43;;;;;;;4.39;100.00;99987.59;4522181;78;28491;-83
2021/11/24 03:17:25;;;;;;;15.13;8.68;;;;;;;4.38;100.00;99986.74;4518436;78;28499;-83
2021/11/24 03:23:27;;;;;;;14.70;8.40;;;;;;;4.49;100.00;99984.25;4524580;78;28537;-83
2021/11/24 03:29:28;;;;;;;13.55;8.03;;;;;;;4.51;100.00;99983.58;4539420;78;28482;-83
2021/11/24 03:35:31;;;;;;;13.32;7.78;;;;;;;4.41;100.00;99981.07;4556981;76;28538;-83
2021/11/24 03:41:33;;;;;;;13.65;8.00;;;;;;;4.41;100.00;99986.91;4558938;76;28460;-83
2021/11/24 03:47:35;;;;;;;16.87;9.48;;;;;;;4.46;100.00;99975.25;4572247;76;28450;-83
2021/11/24 03:53:40;;;;;;;17.12;9.15;;;;;;;4.34;100.00;99970.78;4568220;76;28461;-83
2021/11/24 03:59:39;;;;;;;15.85;9.33;;;;;;;4.40;100.00;99967.43;4544120;76;28490;-83
2021/11/24 04:05:41;;;;;;;16.55;8.88;;;;;;;4.33;100.00;99964.61;4541448;76;28545;-83
2021/11/24 04:11:42;;;;;;;16.70;8.18;;;;;;;4.38;100.00;99965.95;4561261;76;28880;-83
2021/11/24 04:17:46;;;;;;;18.15;8.00;;;;;;;4.33;100.00;99952.63;4523262;77;28478;-82
2021/11/24 04:23:47;;;;;;;14.28;8.10;;;;;;;4.31;100.00;99947.13;4520642;78;28525;-83
2021/11/24 04:29:49;;;;;;;13.13;6.62;;;;;;;4.30;100.00;99937.48;4530758;77;28476;-85
2021/11/24 04:35:51;;;;;;;11.78;6.80;;;;;;;4.26;100.00;99940.16;4531152;78;28520;-84
2021/11/24 04:41:52;;;;;;;12.10;6.20;;;;;;;4.33;100.00;99949.97;4517319;78;28448;-83
2021/11/24 04:47:54;;;;;;;12.33;6.97;;;;;;;4.42;100.00;99952.11;4521902;78;28523;-83
2021/11/24 04:53:55;;;;;;;11.63;6.60;;;;;;;4.40;100.00;99947.46;4510729;78;28453;-83
2021/11/24 04:59:57;;;;;;;11.50;6.72;;;;;;;4.28;100.00;99944.33;4524582;78;28421;-83
2021/11/24 05:05:58;;;;;;;12.18;6.15;;;;;;;4.27;100.00;99946.66;4496820;77;28428;-82
2021/11/24 05:12:00;;;;;;;9.95;5.97;;;;;;;4.29;100.00;99944.66;4521183;78;28478;-83
2021/11/24 05:18:12;;;;;;;10.90;6.05;;;;;;;4.35;100.00;99928.51;4507474;78;28523;-83
2021/11/24 05:24:11;;;;;;;12.80;6.65;;;;;;;4.39;100.00;99938.33;4517010;78;28450;-84
2021/11/24 05:30:13;;;;;;;12.30;6.75;;;;;;;4.33;100.00;99927.34;4525465;78;28497;-84
2021/11/24 05:36:17;;;;;;;11.00;6.00;;;;;;;4.33;100.00;99928.66;4527824;78;28461;-83
2021/11/24 05:42:18;;;;;;;11.08;6.30;;;;;;;4.24;100.00;99931.00;4511423;78;28467;-83
2021/11/24 05:48:21;;;;;;;11.33;6.72;;;;;;;4.20;100.00;99927.02;4524179;78;28453;-83
2021/11/24 05:54:25;;;;;;;11.30;6.78;;;;;;;4.21;100.00;99928.69;4530534;77;28479;-84
2021/11/24 06:00:27;;;;;;;11.90;6.85;;;;;;;4.18;100.00;99919.20;4498794;78;28535;-84
2021/11/24 06:06:28;;;;;;;13.20;6.75;;;;;;;4.17;100.00;99933.51;4510561;77;28492;-83
2021/11/24 06:12:30;;;;;;;11.57;6.03;;;;;;;4.16;100.00;99930.52;4510801;77;28475;-86
2021/11/24 06:18:32;;;;;;;10.50;6.60;;;;;;;4.25;100.00;99935.84;4479909;78;28478;-82
2021/11/24 06:24:34;;;;;;;11.93;6.65;;;;;;;4.21;100.00;99941.15;4524740;77;28448;-81
2021/11/24 06:30:35;;;;;;;12.65;6.70;;;;;;;4.20;100.00;99941.66;4517181;78;28455;-81
2021/11/24 06:36:37;;;;;;;11.70;6.40;;;;;;;4.19;100.00;99948.80;4513985;78;28449;-82
2021/11/24 06:42:38;;;;;;;11.70;6.35;;;;;;;4.24;100.00;99950.16;4503822;78;28445;-83
2021/11/24 06:48:40;;;;;;;11.18;6.50;;;;;;;4.33;100.00;99957.95;4543965;78;28438;-83
2021/11/24 06:54:41;;;;;;;12.95;6.80;;;;;;;4.45;100.00;99969.11;4527073;78;28460;-85
2021/11/24 07:00:43;;;;;;;11.78;6.40;;;;;;;4.40;100.00;99973.27;4487179;78;28527;-85
2021/11/24 07:06:44;;;;;;;12.37;6.65;;;;;;;4.48;100.00;99970.61;4507071;78;28450;-84
2021/11/24 07:12:46;;;;;;;12.03;5.60;;;;;;;4.62;100.00;99967.73;4536740;78;28509;-83
2021/11/24 07:18:47;;;;;;;9.95;5.72;;;;;;;4.69;100.00;99974.57;4538209;78;28497;-84
2021/11/24 07:24:49;;;;;;;9.55;5.58;;;;;;;4.78;100.00;99969.53;4528381;77;28549;-83
2021/11/24 07:30:51;;;;;;;10.95;5.80;;;;;;;4.89;100.00;99971.02;4451875;77;28454;-82
2021/11/24 07:36:52;;;;;;;10.93;5.62;;;;;;;4.94;100.00;99969.17;4524549;77;28452;-83
2021/11/24 07:42:55;;;;;;;10.58;5.78;;;;;;;4.99;100.00;99962.81;4511140;77;28467;-81
2021/11/24 07:48:58;;;;;;;10.40;5.95;;;;;;;5.14;100.00;99960.27;4404513;78;28526;-81
2021/11/24 07:54:59;;;;;;;10.38;6.08;;;;;;;5.21;100.00;99957.77;4464679;79;28476;-82
2021/11/24 08:01:01;;;;;;;11.90;6.47;;;;;;;5.25;100.00;99952.40;4530414;78;28432;-81
2021/11/24 08:07:03;;;;;;;13.78;6.58;;;;;;;5.28;100.00;99947.55;4532411;78;28479;-81
2021/11/24 08:13:05;;;;;;;11.90;6.40;;;;;;;5.37;100.00;99953.67;4539058;78;28560;-82
2021/11/24 08:19:06;;;;;;;12.78;6.42;;;;;;;5.43;100.00;99960.14;4529830;78;28532;-82
2021/11/24 08:25:08;;;;;;;12.30;7.42;;;;;;;5.67;100.00;99957.84;4522645;78;28484;-81
2021/11/24 08:31:10;;;;;;;11.18;6.30;;;;;;;5.70;100.00;99959.33;4520311;78;28453;-81
2021/11/24 08:37:12;;;;;;;12.33;7.05;;;;;;;5.84;100.00;99953.22;4488156;78;28475;-81
2021/11/24 08:43:14;;;;;;;11.10;6.03;;;;;;;5.90;100.00;99953.53;4489854;78;28469;-79
2021/11/24 08:49:18;;;;;;;11.97;6.05;;;;;;;5.87;100.00;99956.05;4488256;78;28589;-82
2021/11/24 08:55:21;;;;;;;13.68;6.92;;;;;;;6.05;100.00;99949.63;4522043;78;28450;-79
2021/11/24 09:01:22;;;;;;;12.28;6.70;;;;;;;6.17;100.00;99952.19;4512068;78;28432;-77
2021/11/24 09:07:24;;;;;;;11.78;6.40;;;;;;;6.16;100.00;99958.54;4530748;78;28485;-79
2021/11/24 09:13:25;;;;;;;12.95;6.75;;;;;;;6.27;100.00;99952.77;4490557;77;28532;-75
2021/11/24 09:19:27;;;;;;;11.05;6.40;;;;;;;6.29;100.00;99945.89;4485324;78;28469;-80
2021/11/24 09:25:37;;;;;;;9.63;6.17;;;;;;;6.43;100.00;99943.45;4465163;78;28431;-79
2021/11/24 09:31:39;;;;;;;10.00;5.67;;;;;;;6.56;100.00;99947.66;4459760;78;28506;-80
2021/11/24 09:37:40;;;;;;;12.33;6.22;;;;;;;6.83;100.00;99934.17;4506408;78;28460;-80
2021/11/24 09:43:49;;;;;;;12.07;5.95;;;;;;;6.86;100.00;99932.14;4521240;77;28578;-79
2021/11/24 09:49:58;;;;;;;13.32;6.03;;;;;;;6.91;100.00;99929.23;4476237;77;28456;-81
2021/11/24 09:56:01;;;;;;;8.48;4.80;;;;;;;6.89;100.00;99925.92;4471577;77;28514;-78
2021/11/24 10:02:04;;;;;;;8.40;4.92;;;;;;;7.08;100.00;99918.34;4472806;76;28483;-79
2021/11/24 10:08:07;;;;;;;8.58;4.53;;;;;;;6.98;100.00;99914.11;4499253;76;28448;-77
2021/11/24 10:14:09;;;;;;;7.83;4.53;;;;;;;6.95;100.00;99922.52;4515245;77;28534;-77
2021/11/24 10:20:12;;;;;;;8.25;4.75;;;;;;;7.00;100.00;99917.11;4479815;76;28492;-82
2021/11/24 10:26:22;;;;;;;7.42;4.33;;;;;;;6.98;100.00;99911.44;4502148;76;28474;-82
2021/11/24 10:32:27;;;;;;;6.83;4.00;;;;;;;6.98;99.87;99913.30;4461607;77;28521;-82
2021/11/24 10:38:31;;;;;;;5.08;3.15;;;;;;;7.12;100.00;99914.27;4478328;79;28499;-83
2021/11/24 10:44:35;;;;;;;4.35;2.30;;;;;;;7.15;90.51;99895.70;4427482;77;28460;-87
